Scout — WCZ2046 — position and weather

sailwx.info

Track history (hours):
 
Tides and Currents Weather Stations Pressure Air Temp Water Temp Dewpoint Dewpoint Depression Visibility Wind Speed Wind Dir Waves Ship Positions

Scout

Owner: CROWLEY MARINE SERVICES INC, SEATTLE, WA. More information available from US FCC via Universal Licensing System and Coast Guard Vessel Documentation Center.

Last reported at 2014-Dec-19 19:33 UTC. Time now 2014-Dec-20 00:12 UTC.
Position N 33°45' W 118°16'.

; draft 5.6 m.

Type: Tug. MMSI: 366764730.

Date/timePositionNaut miles runAvg speedWind from/ knotsBaromVisibWave heightAir tempDewpointWater temp
2014-Dec-19 19:33N 33°45' W 118°16'0 0.3
2014-Dec-19 18:33N 33°45' W 118°16'0 0.1
2014-Dec-19 14:33N 33°45' W 118°16'3 0.1
2014-Dec-18 16:18N 33°44' W 118°13'1 1.5
2014-Dec-18 15:32N 33°45' W 118°13'0 0.4
2014-Dec-18 14:33N 33°45' W 118°13'1 0.8
2014-Dec-18 13:33N 33°45' W 118°12'1 1.2
2014-Dec-18 12:32N 33°44' W 118°13'3 3.0
2014-Dec-18 11:33N 33°46' W 118°13'1 1.4
2014-Dec-18 10:33N 33°45' W 118°13'1 0.1
2014-Dec-18 01:20N 33°44' W 118°13'1 1.3
2014-Dec-18 00:18N 33°45' W 118°13'0 0.1
2014-Dec-17 23:34N 33°45' W 118°13'1 0.5
2014-Dec-17 21:15N 33°44' W 118°13'1 1.9
2014-Dec-17 20:33N 33°45' W 118°13'3 0.2
2014-Dec-17 06:33N 33°45' W 118°16'0 0.0
2014-Dec-17 02:14N 33°45' W 118°16'1 1.3
2014-Dec-17 01:28N 33°46' W 118°17'0 0.2
2014-Dec-17 00:33N 33°46' W 118°16'3 1.0
2014-Dec-16 21:23N 33°44' W 118°13'2 1.9
2014-Dec-16 20:33N 33°45' W 118°13'3 3.0
2014-Dec-16 19:31N 33°44' W 118°10'3 3.0
2014-Dec-16 18:31N 33°45' W 118°13'0 0.0
2014-Dec-16 17:33N 33°45' W 118°13'2 1.9
2014-Dec-16 16:33N 33°44' W 118°11'0 0.1
2014-Dec-16 15:34N 33°44' W 118°11'1 1.3
2014-Dec-16 14:28N 33°44' W 118°13'2 2.3
2014-Dec-16 13:33N 33°46' W 118°13'2 2.1
2014-Dec-16 12:32N 33°44' W 118°12'3 0.3
2014-Dec-16 01:05N 33°45' W 118°16'0 0.0
2014-Dec-15 14:07N 33°45' W 118°16'0 0.1
2014-Dec-15 13:33N 33°45' W 118°16'0 0.1
2014-Dec-15 12:12N 33°45' W 118°16'0 0.2
2014-Dec-15 11:12N 33°45' W 118°16'0 0.1
2014-Dec-15 09:05N 33°45' W 118°16'1 1.8
2014-Dec-15 08:33N 33°46' W 118°17'4 0.2
2014-Dec-14 16:33N 33°45' W 118°12'1 1.1
2014-Dec-14 15:32N 33°44' W 118°13'1 0.8
2014-Dec-14 14:33N 33°45' W 118°13'1 1.3
2014-Dec-14 13:33N 33°46' W 118°13'1 0.6
2014-Dec-14 12:33N 33°46' W 118°13'3 0.4
2014-Dec-14 06:07N 33°45' W 118°16'1 1.2
2014-Dec-14 05:33N 33°46' W 118°16'0 0.1
2014-Dec-14 00:33N 33°46' W 118°16'0 0.4
2014-Dec-13 23:33N 33°46' W 118°16'3 0.4
2014-Dec-13 15:06N 33°44' W 118°13'2 4.4
2014-Dec-13 14:33N 33°46' W 118°13'1 0.9
2014-Dec-13 13:33N 33°45' W 118°13'2 0.3
2014-Dec-13 07:05N 33°44' W 118°13'2 3.2
2014-Dec-13 06:33N 33°46' W 118°13'0 0.1
2014-Dec-13 05:33N 33°46' W 118°13'1 0.2
2014-Dec-12 23:30N 33°44' W 118°13'2 2.0
2014-Dec-12 22:33N 33°46' W 118°13'3 0.4
2014-Dec-12 13:07N 33°44' W 118°17'5 0.4
2014-Dec-12 00:22N 33°44' W 118°10'2 2.4
2014-Dec-11 23:33N 33°45' W 118°13'1 1.0
2014-Dec-11 22:32N 33°44' W 118°13'1 0.2
2014-Dec-11 17:33N 33°44' W 118°12'2 0.3
2014-Dec-11 12:33N 33°45' W 118°13'0 0.1
2014-Dec-11 11:33N 33°45' W 118°13'0 0.2
2014-Dec-11 10:33N 33°45' W 118°13'3 1.4
2014-Dec-11 08:21N 33°44' W 118°17'0 0.0
2014-Dec-11 07:07N 33°44' W 118°17'0 0.0
2014-Dec-11 04:21N 33°44' W 118°17'3 3.3
2014-Dec-11 03:33N 33°43' W 118°14'3 3.0
2014-Dec-11 02:33N 33°46' W 118°13'0 0.4
2014-Dec-11 01:33N 33°46' W 118°13'3 3.1
2014-Dec-11 00:33N 33°44' W 118°11'5 4.7
2014-Dec-10 23:33N 33°44' W 118°16'1 0.6
2014-Dec-10 22:33N 33°44' W 118°17'0 0.0
2014-Dec-10 21:33N 33°44' W 118°17'3 2.7
2014-Dec-10 20:22N 33°44' W 118°13'3 3.0
2014-Dec-10 19:21N 33°45' W 118°16'0 0.6
2014-Dec-10 18:33N 33°46' W 118°16'1 1.0
2014-Dec-10 17:16N 33°44' W 118°17'0 0.0
2014-Dec-10 16:33N 33°44' W 118°17'1 1.5
2014-Dec-10 15:33N 33°46' W 118°16'0 0.4
2014-Dec-10 14:33N 33°45' W 118°17'0 0.5
2014-Dec-10 13:32N 33°45' W 118°16'2 2.3
2014-Dec-10 12:33N 33°43' W 118°15'1 1.0
2014-Dec-10 11:33N 33°44' W 118°15'1 1.0
2014-Dec-10 10:33N 33°43' W 118°15'3 2.5
2014-Dec-10 09:29N 33°45' W 118°13'1 0.9
2014-Dec-10 08:33N 33°45' W 118°13'3 3.1
2014-Dec-10 07:33N 33°43' W 118°15'2 1.9
2014-Dec-10 06:33N 33°44' W 118°17'0 0.0
2014-Dec-10 05:30N 33°44' W 118°17'0 0.0
2014-Dec-10 04:33N 33°44' W 118°17'2 2.3
2014-Dec-10 03:34N 33°43' W 118°15'4 3.7
2014-Dec-10 02:33N 33°46' W 118°13'1 0.5
2014-Dec-10 01:34N 33°46' W 118°13'3 2.7
2014-Dec-10 00:34N 33°43' W 118°13'3 3.2
2014-Dec-09 23:33N 33°44' W 118°17'1 1.4
2014-Dec-09 22:33N 33°43' W 118°16'5 5.0
2014-Dec-09 21:33N 33°42' W 118°22'10 7.2
2014-Dec-09 20:08N 33°51' W 118°28'3 5.6
2014-Dec-09 19:33N 33°54' W 118°27'  
Track history (hours):
 
Tides and Currents Weather Stations Pressure Air Temp Water Temp Dewpoint Dewpoint Depression Visibility Wind Speed Wind Dir Waves Ship Positions

Scout

Owner: CROWLEY MARINE SERVICES INC, SEATTLE, WA. More information available from US FCC via Universal Licensing System and Coast Guard Vessel Documentation Center.

Last reported at 2014-Dec-19 19:33 UTC. Time now 2014-Dec-20 00:12 UTC.
Position N 33°45' W 118°16'.

; draft 5.6 m.

Type: Tug. MMSI: 366764730.

Date/timePositionNaut miles runAvg speedWind from/ knotsBaromVisibWave heightAir tempDewpointWater temp
2014-Dec-19 19:33N 33°45' W 118°16'0 0.3
2014-Dec-19 18:33N 33°45' W 118°16'0 0.1
2014-Dec-19 14:33N 33°45' W 118°16'3 0.1
2014-Dec-18 16:18N 33°44' W 118°13'1 1.5
2014-Dec-18 15:32N 33°45' W 118°13'0 0.4
2014-Dec-18 14:33N 33°45' W 118°13'1 0.8
2014-Dec-18 13:33N 33°45' W 118°12'1 1.2
2014-Dec-18 12:32N 33°44' W 118°13'3 3.0
2014-Dec-18 11:33N 33°46' W 118°13'1 1.4
2014-Dec-18 10:33N 33°45' W 118°13'1 0.1
2014-Dec-18 01:20N 33°44' W 118°13'1 1.3
2014-Dec-18 00:18N 33°45' W 118°13'0 0.1
2014-Dec-17 23:34N 33°45' W 118°13'1 0.5
2014-Dec-17 21:15N 33°44' W 118°13'1 1.9
2014-Dec-17 20:33N 33°45' W 118°13'3 0.2
2014-Dec-17 06:33N 33°45' W 118°16'0 0.0
2014-Dec-17 02:14N 33°45' W 118°16'1 1.3
2014-Dec-17 01:28N 33°46' W 118°17'0 0.2
2014-Dec-17 00:33N 33°46' W 118°16'3 1.0
2014-Dec-16 21:23N 33°44' W 118°13'2 1.9
2014-Dec-16 20:33N 33°45' W 118°13'3 3.0
2014-Dec-16 19:31N 33°44' W 118°10'3 3.0
2014-Dec-16 18:31N 33°45' W 118°13'0 0.0
2014-Dec-16 17:33N 33°45' W 118°13'2 1.9
2014-Dec-16 16:33N 33°44' W 118°11'0 0.1
2014-Dec-16 15:34N 33°44' W 118°11'1 1.3
2014-Dec-16 14:28N 33°44' W 118°13'2 2.3
2014-Dec-16 13:33N 33°46' W 118°13'2 2.1
2014-Dec-16 12:32N 33°44' W 118°12'3 0.3
2014-Dec-16 01:05N 33°45' W 118°16'0 0.0
2014-Dec-15 14:07N 33°45' W 118°16'0 0.1
2014-Dec-15 13:33N 33°45' W 118°16'0 0.1
2014-Dec-15 12:12N 33°45' W 118°16'0 0.2
2014-Dec-15 11:12N 33°45' W 118°16'0 0.1
2014-Dec-15 09:05N 33°45' W 118°16'1 1.8
2014-Dec-15 08:33N 33°46' W 118°17'4 0.2
2014-Dec-14 16:33N 33°45' W 118°12'1 1.1
2014-Dec-14 15:32N 33°44' W 118°13'1 0.8
2014-Dec-14 14:33N 33°45' W 118°13'1 1.3
2014-Dec-14 13:33N 33°46' W 118°13'1 0.6
2014-Dec-14 12:33N 33°46' W 118°13'3 0.4
2014-Dec-14 06:07N 33°45' W 118°16'1 1.2
2014-Dec-14 05:33N 33°46' W 118°16'0 0.1
2014-Dec-14 00:33N 33°46' W 118°16'0 0.4
2014-Dec-13 23:33N 33°46' W 118°16'3 0.4
2014-Dec-13 15:06N 33°44' W 118°13'2 4.4
2014-Dec-13 14:33N 33°46' W 118°13'1 0.9
2014-Dec-13 13:33N 33°45' W 118°13'2 0.3
2014-Dec-13 07:05N 33°44' W 118°13'2 3.2
2014-Dec-13 06:33N 33°46' W 118°13'0 0.1
2014-Dec-13 05:33N 33°46' W 118°13'1 0.2
2014-Dec-12 23:30N 33°44' W 118°13'2 2.0
2014-Dec-12 22:33N 33°46' W 118°13'3 0.4
2014-Dec-12 13:07N 33°44' W 118°17'5 0.4
2014-Dec-12 00:22N 33°44' W 118°10'2 2.4
2014-Dec-11 23:33N 33°45' W 118°13'1 1.0
2014-Dec-11 22:32N 33°44' W 118°13'1 0.2
2014-Dec-11 17:33N 33°44' W 118°12'2 0.3
2014-Dec-11 12:33N 33°45' W 118°13'0 0.1
2014-Dec-11 11:33N 33°45' W 118°13'0 0.2
2014-Dec-11 10:33N 33°45' W 118°13'3 1.4
2014-Dec-11 08:21N 33°44' W 118°17'0 0.0
2014-Dec-11 07:07N 33°44' W 118°17'0 0.0
2014-Dec-11 04:21N 33°44' W 118°17'3 3.3
2014-Dec-11 03:33N 33°43' W 118°14'3 3.0
2014-Dec-11 02:33N 33°46' W 118°13'0 0.4
2014-Dec-11 01:33N 33°46' W 118°13'3 3.1
2014-Dec-11 00:33N 33°44' W 118°11'5 4.7
2014-Dec-10 23:33N 33°44' W 118°16'1 0.6
2014-Dec-10 22:33N 33°44' W 118°17'0 0.0
2014-Dec-10 21:33N 33°44' W 118°17'3 2.7
2014-Dec-10 20:22N 33°44' W 118°13'3 3.0
2014-Dec-10 19:21N 33°45' W 118°16'0 0.6
2014-Dec-10 18:33N 33°46' W 118°16'1 1.0
2014-Dec-10 17:16N 33°44' W 118°17'0 0.0
2014-Dec-10 16:33N 33°44' W 118°17'1 1.5
2014-Dec-10 15:33N 33°46' W 118°16'0 0.4
2014-Dec-10 14:33N 33°45' W 118°17'0 0.5
2014-Dec-10 13:32N 33°45' W 118°16'2 2.3
2014-Dec-10 12:33N 33°43' W 118°15'1 1.0
2014-Dec-10 11:33N 33°44' W 118°15'1 1.0
2014-Dec-10 10:33N 33°43' W 118°15'3 2.5
2014-Dec-10 09:29N 33°45' W 118°13'1 0.9
2014-Dec-10 08:33N 33°45' W 118°13'3 3.1
2014-Dec-10 07:33N 33°43' W 118°15'2 1.9
2014-Dec-10 06:33N 33°44' W 118°17'0 0.0
2014-Dec-10 05:30N 33°44' W 118°17'0 0.0
2014-Dec-10 04:33N 33°44' W 118°17'2 2.3
2014-Dec-10 03:34N 33°43' W 118°15'4 3.7
2014-Dec-10 02:33N 33°46' W 118°13'1 0.5
2014-Dec-10 01:34N 33°46' W 118°13'3 2.7
2014-Dec-10 00:34N 33°43' W 118°13'3 3.2
2014-Dec-09 23:33N 33°44' W 118°17'1 1.4
2014-Dec-09 22:33N 33°43' W 118°16'5 5.0
2014-Dec-09 21:33N 33°42' W 118°22'10 7.2
2014-Dec-09 20:08N 33°51' W 118°28'3 5.6
2014-Dec-09 19:33N 33°54' W 118°27'  

Dump ship's entire track history